Time;durP1;ratioP1;P1;durP2;ratioP2;P2;SDS_P1;SDS_P2;PMS_P1;PMS_P2;Temp;Humidity;BMP_temperature;BMP_pressure;BME280_temperature;BME280_humidity;BME280_pressure;Samples;Min_cycle;Max_cycle;Signal;HPM_P1;HPM_P2
2023/03/08 00:00:54;;;;;;;;;21.00;20.00;;;;;8.98;100.00;99180.16;4933861;28;45402;-81
2023/03/08 00:03:20;;;;;;;;;27.00;20.33;;;;;9.02;100.00;99168.66;4933697;28;48091;-82
2023/03/08 00:05:45;;;;;;;;;27.00;21.33;;;;;9.00;100.00;99173.09;4950388;28;45382;-82
2023/03/08 00:08:11;;;;;;;;;19.33;19.33;;;;;8.91;100.00;99159.00;4951093;28;45299;-81
2023/03/08 00:10:36;;;;;;;;;29.33;23.33;;;;;8.93;100.00;99160.75;4932431;28;45715;-82
2023/03/08 00:13:02;;;;;;;;;20.67;15.67;;;;;8.92;100.00;99169.59;4948612;28;45455;-81
2023/03/08 00:15:27;;;;;;;;;25.00;24.33;;;;;8.93;100.00;99166.06;4932849;28;45851;-82
2023/03/08 00:17:53;;;;;;;;;24.33;19.67;;;;;8.97;100.00;99154.56;4947430;28;45595;-82
2023/03/08 00:20:21;;;;;;;;;27.00;24.33;;;;;8.98;100.00;99156.28;4932094;28;45646;-81
2023/03/08 00:22:46;;;;;;;;;24.00;21.00;;;;;8.91;100.00;99149.28;4947548;28;48052;-81
2023/03/08 00:25:15;;;;;;;;;25.67;22.67;;;;;8.97;100.00;99146.59;4949146;28;45466;-80
2023/03/08 00:27:40;;;;;;;;;30.00;24.00;;;;;8.95;100.00;99136.91;4948302;28;45760;-81
2023/03/08 00:30:08;;;;;;;;;28.33;23.00;;;;;9.02;100.00;99133.31;4947906;28;45509;-82
2023/03/08 00:32:33;;;;;;;;;21.00;20.33;;;;;9.06;100.00;99129.75;4947973;28;45786;-82
2023/03/08 00:34:59;;;;;;;;;20.33;20.33;;;;;8.99;100.00;99104.16;4948842;28;45569;-82
2023/03/08 00:37:25;;;;;;;;;29.00;24.33;;;;;9.04;100.00;99109.44;4950733;28;45501;-82
2023/03/08 00:39:52;;;;;;;;;21.67;19.67;;;;;8.93;100.00;99098.91;4933975;28;45823;-82
2023/03/08 00:42:20;;;;;;;;;19.67;18.33;;;;;8.89;100.00;99089.22;4950673;28;45411;-82
2023/03/08 00:44:47;;;;;;;;;31.00;25.00;;;;;8.84;100.00;99093.66;4932167;28;45767;-81
2023/03/08 00:47:12;;;;;;;;;26.00;23.67;;;;;8.74;100.00;99079.56;4932228;28;45487;-82
2023/03/08 00:49:39;;;;;;;;;24.67;22.67;;;;;8.71;100.00;99069.84;4950833;28;45381;-81
2023/03/08 00:52:05;;;;;;;;;28.33;20.67;;;;;8.63;100.00;99052.25;4948314;28;45532;-81
2023/03/08 00:54:31;;;;;;;;;15.00;13.67;;;;;8.60;100.00;99045.16;4931696;28;45465;-83
2023/03/08 00:56:56;;;;;;;;;26.67;23.67;;;;;8.57;100.00;99035.47;4932499;28;45772;-82
2023/03/08 00:59:22;;;;;;;;;24.67;20.67;;;;;8.59;100.00;99033.69;4948746;28;45503;-81
2023/03/08 01:01:48;;;;;;;;;23.33;20.33;;;;;8.55;100.00;99021.34;4930573;28;47671;-82
2023/03/08 01:04:14;;;;;;;;;29.33;27.67;;;;;8.56;100.00;99017.84;4931646;28;45414;-82
2023/03/08 01:06:42;;;;;;;;;28.00;26.00;;;;;8.55;100.00;99008.09;4931978;28;45313;-81
2023/03/08 01:09:07;;;;;;;;;22.67;22.00;;;;;8.50;100.00;99007.25;4946896;28;45406;-81
2023/03/08 01:11:34;;;;;;;;;22.00;18.67;;;;;8.44;100.00;98980.78;4947420;28;45487;-80
2023/03/08 01:17:21;;;;;;;;;23.00;19.67;;;;;8.47;100.00;98996.69;4948183;28;45515;-82
2023/03/08 01:19:46;;;;;;;;;22.67;21.00;;;;;8.50;100.00;98983.38;4948771;28;45400;-82
2023/03/08 01:22:12;;;;;;;;;25.67;24.33;;;;;8.52;100.00;98978.97;4932953;28;47170;-81
2023/03/08 01:24:37;;;;;;;;;26.00;20.33;;;;;8.54;100.00;98963.97;4931820;28;46169;-82
2023/03/08 01:27:03;;;;;;;;;27.00;23.00;;;;;8.55;100.00;98963.06;4949300;28;45537;-82
2023/03/08 01:29:28;;;;;;;;;22.33;20.33;;;;;8.53;100.00;98950.72;4931109;28;45221;-82
2023/03/08 01:31:53;;;;;;;;;22.67;19.33;;;;;8.51;100.00;98940.13;4946426;28;45678;-81
2023/03/08 01:34:19;;;;;;;;;24.00;20.67;;;;;8.54;100.00;98932.19;4947606;28;45495;-81
2023/03/08 01:36:45;;;;;;;;;17.00;14.00;;;;;8.56;100.00;98932.13;4931606;28;45425;-82
2023/03/08 01:39:11;;;;;;;;;27.33;24.00;;;;;8.49;100.00;98915.41;4948761;28;45858;-81
2023/03/08 01:41:37;;;;;;;;;21.33;20.67;;;;;8.46;100.00;98928.66;4930604;28;46814;-80
2023/03/08 01:44:02;;;;;;;;;22.33;21.33;;;;;8.46;100.00;98919.84;4949200;28;45650;-82
2023/03/08 01:46:32;;;;;;;;;26.33;22.00;;;;;8.53;100.00;98921.56;4933062;28;45439;-82
2023/03/08 01:49:12;;;;;;;;;18.33;18.00;;;;;8.57;100.00;98915.38;4934323;28;45391;-82
2023/03/08 01:52:01;;;;;;;;;24.33;23.00;;;;;8.59;100.00;98908.28;4931552;28;47474;-82
2023/03/08 01:54:35;;;;;;;;;23.33;20.00;;;;;8.57;100.00;98899.47;4949993;28;45413;-82
2023/03/08 01:57:05;;;;;;;;;22.33;21.00;;;;;8.53;100.00;98893.31;4950086;28;45450;-81
2023/03/08 01:59:33;;;;;;;;;23.33;22.00;;;;;8.57;100.00;98916.25;4949388;28;45476;-79
2023/03/08 02:01:59;;;;;;;;;22.00;20.67;;;;;8.54;100.00;98905.69;4930000;28;46795;-81
2023/03/08 02:04:25;;;;;;;;;20.67;17.00;;;;;8.60;100.00;98889.72;4932458;28;45369;-82
2023/03/08 02:06:51;;;;;;;;;19.67;18.33;;;;;8.66;100.00;98890.56;4949591;28;45440;-82
2023/03/08 02:09:17;;;;;;;;;21.67;20.00;;;;;8.69;100.00;98879.94;4949357;28;45526;-81
2023/03/08 02:11:43;;;;;;;;;26.33;22.67;;;;;8.63;100.00;98866.75;4930777;28;47247;-81
2023/03/08 02:14:09;;;;;;;;;22.67;22.33;;;;;8.62;100.00;98860.53;4914198;28;45385;-81
2023/03/08 02:16:34;;;;;;;;;23.33;20.00;;;;;8.66;100.00;98864.94;4930979;28;45488;-81
2023/03/08 02:19:04;;;;;;;;;20.67;18.33;;;;;8.75;100.00;98864.00;4931164;28;45848;-81
2023/03/08 02:21:31;;;;;;;;;19.33;16.67;;;;;8.69;100.00;98850.81;4931236;28;47135;-81
2023/03/08 02:24:23;;;;;;;;;13.00;13.00;;;;;8.77;100.00;98843.66;4931034;28;45481;-82
2023/03/08 02:26:51;;;;;;;;;19.33;19.33;;;;;8.67;100.00;98826.09;4948408;28;45500;-81
2023/03/08 02:29:17;;;;;;;;;15.00;14.67;;;;;8.58;100.00;98821.72;4949612;28;45429;-82
2023/03/08 02:31:43;;;;;;;;;17.33;17.00;;;;;8.65;100.00;98809.31;4931569;28;47112;-81
2023/03/08 02:34:08;;;;;;;;;21.67;19.00;;;;;8.68;100.00;98801.31;4950080;28;45409;-81
2023/03/08 02:36:34;;;;;;;;;16.67;16.67;;;;;8.68;100.00;98788.94;4933241;28;45506;-81
2023/03/08 02:38:59;;;;;;;;;22.00;19.00;;;;;8.56;100.00;98768.78;4933309;28;45412;-80
2023/03/08 02:41:25;;;;;;;;;16.00;15.33;;;;;8.57;100.00;98774.94;4951657;28;45377;-82
2023/03/08 02:43:50;;;;;;;;;22.67;17.67;;;;;8.56;100.00;98784.66;4949728;28;45429;-82
2023/03/08 02:46:16;;;;;;;;;18.33;17.00;;;;;8.49;100.00;98769.72;4932589;28;44926;-81
2023/03/08 02:48:41;;;;;;;;;17.00;16.00;;;;;8.52;100.00;98769.66;4933083;28;45527;-80
2023/03/08 02:51:06;;;;;;;;;21.33;17.33;;;;;8.51;100.00;98764.41;4932859;28;47421;-81
2023/03/08 02:53:32;;;;;;;;;14.33;13.00;;;;;8.43;100.00;98742.41;4950868;28;45449;-82
2023/03/08 02:55:57;;;;;;;;;20.00;15.00;;;;;8.35;100.00;98723.91;4934162;28;45760;-82
2023/03/08 02:58:23;;;;;;;;;13.33;11.67;;;;;8.35;100.00;98708.00;4949793;28;45380;-82
2023/03/08 03:00:49;;;;;;;;;17.00;14.33;;;;;8.39;100.00;98707.09;4948470;28;46656;-81
2023/03/08 03:03:15;;;;;;;;;13.67;13.67;;;;;8.46;100.00;98694.69;4950445;28;45793;-81
2023/03/08 03:05:44;;;;;;;;;13.33;13.33;;;;;8.48;100.00;98684.94;4951300;28;45381;-81
2023/03/08 03:08:10;;;;;;;;;14.33;13.33;;;;;8.40;100.00;98661.16;4932731;28;45459;-82
2023/03/08 03:10:38;;;;;;;;;14.00;13.00;;;;;8.45;100.00;98675.25;4931311;28;47804;-81
2023/03/08 03:13:05;;;;;;;;;15.00;13.00;;;;;8.46;100.00;98666.41;4933333;28;44895;-80
2023/03/08 03:15:32;;;;;;;;;14.33;13.00;;;;;8.39;100.00;98656.75;4950874;28;45376;-80
2023/03/08 03:17:57;;;;;;;;;14.00;13.33;;;;;8.40;100.00;98659.41;4951060;28;45768;-79
2023/03/08 03:20:23;;;;;;;;;19.00;18.00;;;;;8.39;100.00;98654.09;4931351;28;47079;-82
2023/03/08 03:22:48;;;;;;;;;14.67;12.67;;;;;8.36;100.00;98643.53;4950765;28;45368;-84
2023/03/08 03:25:14;;;;;;;;;14.00;14.00;;;;;8.34;100.00;98630.34;4953069;28;45470;-81
2023/03/08 03:27:39;;;;;;;;;17.33;15.67;;;;;8.34;100.00;98617.09;4951268;28;45457;-82
2023/03/08 03:30:07;;;;;;;;;17.67;15.33;;;;;8.36;100.00;98598.50;4933915;28;48053;-82
2023/03/08 03:32:33;;;;;;;;;17.00;15.33;;;;;8.26;100.00;98588.91;4949090;28;45523;-81
2023/03/08 03:34:58;;;;;;;;;14.67;14.00;;;;;8.29;100.00;98588.91;4951866;28;45469;-81
2023/03/08 03:37:24;;;;;;;;;11.33;11.33;;;;;8.31;100.00;98579.16;4951832;28;45453;-81
2023/03/08 03:39:49;;;;;;;;;11.00;9.00;;;;;8.30;100.00;98558.84;4932192;28;47060;-82
2023/03/08 03:42:14;;;;;;;;;18.33;13.00;;;;;8.30;100.00;98556.19;4933582;28;45556;-81
2023/03/08 03:44:40;;;;;;;;;15.67;15.67;;;;;8.23;100.00;98541.31;4951716;28;45400;-82
2023/03/08 03:47:06;;;;;;;;;15.00;15.00;;;;;8.30;100.00;98537.66;4933326;28;44891;-82
2023/03/08 03:49:31;;;;;;;;;12.67;12.67;;;;;8.33;100.00;98530.56;4952260;28;45399;-81
2023/03/08 03:51:58;;;;;;;;;8.67;8.67;;;;;8.44;100.00;98546.34;4950043;28;45462;-82
2023/03/08 03:54:23;;;;;;;;;14.33;12.33;;;;;8.36;100.00;98538.50;4947943;28;45763;-82
2023/03/08 03:56:49;;;;;;;;;17.00;17.00;;;;;8.33;100.00;98530.56;4948687;28;44858;-81
2023/03/08 03:59:14;;;;;;;;;11.67;10.00;;;;;8.57;100.00;98515.28;4946121;28;47008;-81
2023/03/08 04:01:40;;;;;;;;;11.00;8.00;;;;;8.85;100.00;98514.88;4931269;28;45424;-82
2023/03/08 04:04:08;;;;;;;;;13.00;11.67;;;;;8.83;100.00;98504.31;4931173;28;45745;-81
2023/03/08 04:06:34;;;;;;;;;11.00;11.00;;;;;8.79;100.00;98506.13;4950027;28;45468;-81
2023/03/08 04:09:03;;;;;;;;;14.00;13.33;;;;;8.76;100.00;98494.69;4930629;28;46703;-81
2023/03/08 04:11:33;;;;;;;;;10.67;10.33;;;;;8.73;100.00;98494.75;4947997;28;45415;-81
2023/03/08 04:13:58;;;;;;;;;13.00;12.67;;;;;8.66;100.00;98487.78;4931882;28;45482;-82
2023/03/08 04:16:30;;;;;;;;;11.33;8.00;;;;;8.76;100.00;98489.41;4950721;28;45489;-81
2023/03/08 04:18:58;;;;;;;;;8.33;7.33;;;;;8.73;100.00;98479.72;4932604;28;47996;-82
2023/03/08 04:21:24;;;;;;;;;8.33;8.33;;;;;8.64;100.00;98468.38;4930880;28;45406;-82
2023/03/08 04:23:49;;;;;;;;;8.00;8.00;;;;;8.66;100.00;98471.88;4948659;28;45393;-82
2023/03/08 04:26:15;;;;;;;;;9.00;8.33;;;;;8.70;100.00;98466.50;4932815;28;45657;-81
2023/03/08 04:28:41;;;;;;;;;15.33;12.33;;;;;8.59;100.00;98429.59;4949100;28;47936;-82
2023/03/08 04:31:24;;;;;;;;;13.00;10.67;;;;;8.70;100.00;98425.91;4931976;28;46122;-81
2023/03/08 04:33:58;;;;;;;;;13.33;7.00;;;;;8.61;100.00;98405.72;4949072;28;44746;-81
2023/03/08 04:36:24;;;;;;;;;8.33;8.00;;;;;8.63;100.00;98429.56;4949364;28;45479;-82
2023/03/08 04:38:53;;;;;;;;;3.67;2.33;;;;;8.68;100.00;98391.47;4950720;28;45604;-81
2023/03/08 04:41:19;;;;;;;;;6.67;6.67;;;;;8.60;100.00;98402.22;4950666;28;45418;-81
2023/03/08 04:43:47;;;;;;;;;6.00;6.00;;;;;8.70;100.00;98397.63;4931428;28;45489;-81
2023/03/08 04:46:13;;;;;;;;;6.33;6.00;;;;;8.71;100.00;98438.25;4932494;28;45644;-82
2023/03/08 04:48:38;;;;;;;;;7.00;3.67;;;;;8.71;100.00;98380.81;4931812;28;47491;-82
2023/03/08 04:51:06;;;;;;;;;3.67;3.67;;;;;8.80;100.00;98416.91;4930446;28;45482;-80
2023/03/08 04:53:33;;;;;;;;;7.00;4.67;;;;;8.81;100.00;98430.13;4949232;28;45789;-81
2023/03/08 04:55:59;;;;;;;;;7.33;6.00;;;;;8.82;100.00;98383.28;4930244;28;45524;-81
2023/03/08 04:58:25;;;;;;;;;4.00;4.00;;;;;8.84;100.00;98381.50;4947801;28;45509;-82
2023/03/08 05:00:51;;;;;;;;;5.00;4.67;;;;;8.95;100.00;98400.75;4931979;28;45492;-81
2023/03/08 05:03:16;;;;;;;;;6.00;6.00;;;;;9.04;100.00;98398.84;4948304;28;45403;-82
2023/03/08 05:05:50;;;;;;;;;6.00;6.00;;;;;9.11;100.00;98358.94;4949346;28;44884;-82
2023/03/08 05:08:16;;;;;;;;;7.33;3.67;;;;;8.94;100.00;98351.25;4950804;28;45523;-82
2023/03/08 05:10:57;;;;;;;;;8.00;6.33;;;;;9.08;100.00;98384.63;4949347;28;45541;-82
2023/03/08 05:13:23;;;;;;;;;6.00;6.00;;;;;9.00;100.00;98337.91;4932178;28;45401;-82
2023/03/08 05:15:49;;;;;;;;;6.00;6.00;;;;;8.98;100.00;98318.50;4933006;28;45438;-82
2023/03/08 05:18:14;;;;;;;;;7.33;7.00;;;;;9.07;100.00;98362.53;4931831;28;47420;-82
2023/03/08 05:20:40;;;;;;;;;7.00;4.00;;;;;9.12;100.00;98358.03;4931850;28;45894;-82
2023/03/08 05:23:07;;;;;;;;;7.67;7.33;;;;;9.20;100.00;98331.34;4932403;28;45462;-81
2023/03/08 05:25:32;;;;;;;;;7.00;7.00;;;;;9.13;100.00;98329.72;4949151;28;46034;-82
2023/03/08 05:27:58;;;;;;;;;4.67;4.67;;;;;9.09;100.00;98328.03;4948152;28;45396;-83
2023/03/08 05:30:24;;;;;;;;;4.67;4.67;;;;;9.05;100.00;98348.44;4949846;28;44815;-83
2023/03/08 05:32:49;;;;;;;;;5.33;4.67;;;;;9.11;100.00;98334.16;4939428;28;45504;-83
2023/03/08 05:35:58;;;;;;;;;6.67;6.00;;;;;9.26;100.00;98340.97;4911038;29;45530;-82
2023/03/08 05:38:24;;;;;;;;;5.33;5.33;;;;;9.16;100.00;98330.53;4911097;28;45512;-83
2023/03/08 05:40:50;;;;;;;;;3.67;3.33;;;;;9.16;100.00;98316.41;4924407;28;45433;-82
2023/03/08 05:43:17;;;;;;;;;6.67;6.67;;;;;9.13;100.00;98308.50;4911602;28;45471;-83
2023/03/08 05:45:43;;;;;;;;;2.00;2.00;;;;;9.19;100.00;98335.81;4910947;29;45893;-83
2023/03/08 05:48:08;;;;;;;;;4.00;4.00;;;;;9.27;100.00;98327.69;4911884;29;45630;-81
2023/03/08 05:50:37;;;;;;;;;6.33;6.33;;;;;9.36;100.00;98306.28;4910850;29;45407;-82
2023/03/08 05:53:02;;;;;;;;;3.00;3.00;;;;;9.36;100.00;98324.84;4912063;29;45366;-82
2023/03/08 05:55:28;;;;;;;;;2.33;2.33;;;;;9.35;100.00;98308.97;4910813;29;45302;-82
2023/03/08 05:57:53;;;;;;;;;4.00;4.00;;;;;9.46;100.00;98336.16;4925984;28;46988;-82
2023/03/08 06:00:19;;;;;;;;;4.67;4.67;;;;;9.48;100.00;98322.88;4926993;28;45636;-81
2023/03/08 06:02:45;;;;;;;;;6.67;6.00;;;;;9.46;100.00;98292.84;4895143;29;45546;-81
2023/03/08 06:05:10;;;;;;;;;3.00;3.00;;;;;9.49;100.00;98333.44;4912507;29;45349;-82
2023/03/08 06:07:36;;;;;;;;;1.67;1.67;;;;;9.54;100.00;98343.97;4913627;29;46888;-82
2023/03/08 06:10:01;;;;;;;;;3.67;3.00;;;;;9.57;100.00;98334.16;4912897;29;45420;-82
2023/03/08 06:12:30;;;;;;;;;2.00;2.00;;;;;9.68;100.00;98330.41;4899163;29;45395;-81
2023/03/08 06:14:58;;;;;;;;;2.00;2.00;;;;;9.63;100.00;98337.59;4914707;29;45820;-82
2023/03/08 06:17:23;;;;;;;;;2.67;2.67;;;;;9.59;100.00;98328.81;4896742;29;46882;-82
2023/03/08 06:19:49;;;;;;;;;2.00;2.00;;;;;9.64;100.00;98336.69;4912570;29;45695;-82
2023/03/08 06:22:18;;;;;;;;;3.00;3.00;;;;;9.64;100.00;98348.19;4912104;29;45446;-81
2023/03/08 06:24:43;;;;;;;;;2.33;2.33;;;;;9.68;100.00;98339.25;4895315;29;45499;-81
2023/03/08 06:27:09;;;;;;;;;6.00;3.00;;;;;9.61;100.00;98337.59;4894888;29;47188;-82
2023/03/08 06:29:35;;;;;;;;;4.00;4.00;;;;;9.78;100.00;98361.16;4910587;29;45412;-82
2023/03/08 06:32:00;;;;;;;;;3.00;2.00;;;;;9.81;100.00;98364.59;4928373;28;45440;-82
2023/03/08 06:34:26;;;;;;;;;3.67;3.33;;;;;9.88;100.00;98365.38;4911665;28;45387;-82
2023/03/08 06:36:51;;;;;;;;;3.00;3.00;;;;;9.97;100.00;98354.53;4910328;29;47520;-82
2023/03/08 06:39:17;;;;;;;;;2.67;2.00;;;;;10.05;100.00;98348.19;4910215;29;45398;-82
2023/03/08 06:41:44;;;;;;;;;2.00;2.00;;;;;10.17;100.00;98372.69;4910769;29;45401;-81
2023/03/08 06:44:09;;;;;;;;;2.00;2.00;;;;;10.16;100.00;98356.78;4911199;29;45527;-83
2023/03/08 06:46:36;;;;;;;;;2.00;2.00;;;;;10.30;100.00;98351.19;4915026;29;45454;-82
2023/03/08 06:49:03;;;;;;;;;3.00;3.00;;;;;10.40;100.00;98358.03;4917251;29;45442;-82
2023/03/08 06:51:28;;;;;;;;;2.33;2.33;;;;;10.52;100.00;98360.41;4895056;29;44865;-81
2023/03/08 06:53:54;;;;;;;;;3.00;2.00;;;;;10.60;100.00;98358.44;4913087;29;45450;-82
2023/03/08 06:56:19;;;;;;;;;2.33;2.33;;;;;10.66;100.00;98343.25;4922081;28;48027;-83
2023/03/08 06:58:45;;;;;;;;;1.67;1.67;;;;;10.70;100.00;98331.63;4915175;29;45400;-82
2023/03/08 07:01:12;;;;;;;;;3.33;2.67;;;;;10.80;100.00;98334.00;4914590;29;45462;-83
2023/03/08 07:03:38;;;;;;;;;1.67;1.67;;;;;10.84;100.00;98332.13;4903119;29;45675;-81
2023/03/08 07:06:07;;;;;;;;;1.67;1.67;;;;;11.08;100.00;98359.03;4882561;29;46678;-83
2023/03/08 07:08:36;;;;;;;;;1.00;1.00;;;;;11.12;100.00;98360.69;4909693;29;46017;-82
2023/03/08 07:11:02;;;;;;;;;2.67;2.67;;;;;11.16;100.00;98341.94;4912155;29;45494;-82
2023/03/08 07:13:28;;;;;;;;;2.67;2.67;;;;;11.26;100.00;98347.03;4915226;28;45471;-82
2023/03/08 07:15:56;;;;;;;;;2.33;2.00;;;;;11.31;100.00;98345.09;4913182;29;47599;-82
2023/03/08 07:18:22;;;;;;;;;2.67;2.67;;;;;11.37;100.00;98336.94;4912247;29;45758;-82
2023/03/08 07:20:58;;;;;;;;;3.00;1.00;;;;;11.48;100.00;98328.66;4912813;29;45466;-84
2023/03/08 07:23:23;;;;;;;;;1.33;1.33;;;;;11.43;100.00;98320.78;4913857;28;45497;-83
2023/03/08 07:25:49;;;;;;;;;1.00;1.00;;;;;11.47;100.00;98333.09;4900955;28;46994;-83
2023/03/08 07:28:17;;;;;;;;;2.00;2.00;;;;;11.53;100.00;98337.38;4911546;28;45425;-82
2023/03/08 07:30:51;;;;;;;;;3.00;1.00;;;;;11.60;100.00;98339.81;4911939;28;44831;-82
2023/03/08 07:34:02;;;;;;;;;1.33;1.33;;;;;11.73;100.00;98342.13;4918597;28;45507;-82
2023/03/08 07:36:28;;;;;;;;;1.33;1.33;;;;;11.65;100.00;98349.47;4924591;28;48310;-83
2023/03/08 07:38:53;;;;;;;;;1.33;1.33;;;;;11.73;100.00;98352.78;4934151;28;44931;-82
2023/03/08 07:41:18;;;;;;;;;1.33;1.33;;;;;11.80;100.00;98349.91;4947465;28;45485;-81
2023/03/08 07:43:48;;;;;;;;;3.00;2.33;;;;;11.96;100.00;98354.81;4948142;28;44915;-82
2023/03/08 07:46:14;;;;;;;;;1.00;0.67;;;;;12.03;100.00;98335.06;4934787;28;45446;-82
2023/03/08 07:48:40;;;;;;;;;1.00;1.00;;;;;12.12;100.00;98337.44;4931250;28;45423;-81
2023/03/08 07:51:55;;;;;;;;;2.00;2.00;;;;;12.33;100.00;98351.03;4932376;28;45449;-82
2023/03/08 07:54:26;;;;;;;;;1.00;1.00;;;;;12.30;100.00;98337.78;4932973;28;45564;-83
2023/03/08 07:56:55;;;;;;;;;1.00;1.00;;;;;12.44;100.00;98346.19;4931294;28;47202;-83
2023/03/08 07:59:23;;;;;;;;;1.00;1.00;;;;;12.59;100.00;98345.72;4930484;28;45422;-82
2023/03/08 08:01:49;;;;;;;;;1.00;1.00;;;;;12.68;100.00;98354.34;4929375;28;44807;-81
2023/03/08 08:04:58;;;;;;;;;2.00;1.00;;;;;13.03;100.00;98371.84;4927484;28;45496;-81
2023/03/08 08:07:25;;;;;;;;;3.00;3.00;;;;;13.09;100.00;98368.06;4929486;28;46266;-82
2023/03/08 08:09:54;;;;;;;;;1.00;1.00;;;;;13.29;100.00;98373.66;4934177;28;44921;-82
2023/03/08 08:12:20;;;;;;;;;2.00;2.00;;;;;13.28;100.00;98371.88;4933659;28;44876;-84
2023/03/08 08:14:45;;;;;;;;;0.33;0.33;;;;;13.40;100.00;98375.94;4932291;28;45317;-82
2023/03/08 08:17:14;;;;;;;;;2.00;2.00;;;;;13.51;100.00;98378.22;4934232;28;45130;-82
2023/03/08 08:19:40;;;;;;;;;1.00;1.00;;;;;13.53;100.00;98363.91;4933155;28;45428;-83
2023/03/08 08:22:10;;;;;;;;;0.33;0.00;;;;;13.73;100.00;98373.84;4932650;28;45501;-84
2023/03/08 08:24:56;;;;;;;;;1.00;1.00;;;;;13.90;100.00;98372.38;4933340;28;45565;-83
2023/03/08 08:27:30;;;;;;;;;2.00;2.00;;;;;14.04;100.00;98382.50;4932851;28;45373;-80
2023/03/08 08:33:23;;;;;;;;;0.67;0.67;;;;;14.01;100.00;98378.16;4924886;28;45579;-84
2023/03/08 08:35:48;;;;;;;;;2.67;2.00;;;;;14.03;100.00;98389.66;4950030;28;44958;-83
2023/03/08 08:38:14;;;;;;;;;2.00;2.00;;;;;14.12;100.00;98397.34;4947723;28;46125;-83
2023/03/08 08:40:40;;;;;;;;;2.00;2.00;;;;;14.19;100.00;98396.16;4950805;28;45542;-81
2023/03/08 08:43:06;;;;;;;;;1.00;1.00;;;;;14.21;100.00;98402.31;4930312;28;44944;-83
2023/03/08 08:45:31;;;;;;;;;1.00;1.00;;;;;14.16;100.00;98403.44;4924517;28;44969;-81
2023/03/08 08:47:57;;;;;;;;;1.00;1.00;;;;;14.08;100.00;98411.75;4949213;28;45769;-82
2023/03/08 08:50:23;;;;;;;;;2.33;1.00;;;;;13.94;100.00;98409.59;4948961;28;45591;-83
2023/03/08 08:52:48;;;;;;;;;2.00;1.00;;;;;13.92;100.00;98413.25;4943418;28;45535;-83
2023/03/08 08:55:15;;;;;;;;;1.00;1.00;;;;;13.95;100.00;98411.31;4935646;28;44952;-84
2023/03/08 08:58:02;;;;;;;;;1.00;1.00;;;;;14.01;100.00;98415.56;4952698;28;45514;-83
2023/03/08 09:00:48;;;;;;;;;3.00;3.00;;;;;13.96;100.00;98420.22;4941428;28;45392;-84
2023/03/08 09:03:16;;;;;;;;;2.00;2.00;;;;;13.91;100.00;98414.16;4932079;28;45383;-82
2023/03/08 09:05:53;;;;;;;;;2.00;2.00;;;;;13.92;100.00;98403.44;4935480;28;45531;-82
2023/03/08 09:08:18;;;;;;;;;1.33;1.33;;;;;13.96;100.00;98402.38;4946316;28;46939;-82
2023/03/08 09:10:44;;;;;;;;;1.67;1.67;;;;;14.13;100.00;98406.22;4948137;28;45451;-83
2023/03/08 09:13:10;;;;;;;;;3.33;2.00;;;;;14.40;100.00;98406.94;4950230;28;45591;-82
2023/03/08 09:15:36;;;;;;;;;3.00;3.00;;;;;14.58;100.00;98390.25;4933835;28;45359;-82
2023/03/08 09:18:02;;;;;;;;;3.33;2.33;;;;;14.76;100.00;98395.75;4943507;28;47339;-83
2023/03/08 09:20:30;;;;;;;;;1.00;1.00;;;;;15.02;100.00;98405.41;4935577;28;45805;-83
2023/03/08 09:23:05;;;;;;;;;2.00;2.00;;;;;15.28;100.00;98396.28;4935429;28;45495;-83
2023/03/08 09:25:38;;;;;;;;;3.00;2.33;;;;;15.60;100.00;98402.03;4941987;28;46238;-84
2023/03/08 09:28:05;;;;;;;;;3.00;1.67;;;;;15.62;100.00;98402.84;4937577;28;45404;-83
2023/03/08 09:30:40;;;;;;;;;4.67;3.67;;;;;15.82;100.00;98398.47;4935228;28;44966;-85
2023/03/08 09:33:18;;;;;;;;;1.00;1.00;;;;;16.02;100.00;98414.50;4929625;28;45596;-83
2023/03/08 09:35:59;;;;;;;;;2.00;2.00;;;;;16.03;100.00;98404.66;4916578;28;45416;-81
2023/03/08 09:38:31;;;;;;;;;0.00;0.00;;;;;15.96;100.00;98410.28;4911973;29;47135;-84
2023/03/08 09:44:44;;;;;;;;;3.00;2.00;;;;;15.80;100.00;98423.50;4914411;29;45428;-83
2023/03/08 09:47:21;;;;;;;;;3.00;1.00;;;;;15.81;100.00;98419.00;4915042;28;45504;-85
2023/03/08 09:49:51;;;;;;;;;3.00;3.00;;;;;15.74;100.00;98410.38;4899110;28;45259;-82
2023/03/08 09:52:49;;;;;;;;;3.00;3.00;;;;;15.76;100.00;98418.34;4910001;28;44919;-82
2023/03/08 09:55:30;;;;;;;;;4.00;3.00;;;;;15.82;100.00;98442.22;4912384;29;45752;-83
2023/03/08 09:58:21;;;;;;;;;2.00;2.00;;;;;15.89;100.00;98430.25;4890887;29;45057;-81
2023/03/08 10:00:48;;;;;;;;;3.00;3.00;;;;;16.00;100.00;98432.47;4900943;28;45394;-83
2023/03/08 10:14:33;;;;;;;;;3.33;2.33;;;;;16.74;100.00;98445.13;4891964;29;45447;-84
2023/03/08 10:17:22;;;;;;;;;2.00;2.00;;;;;16.87;100.00;98446.31;4818987;29;45318;-83
2023/03/08 10:20:38;;;;;;;;;1.50;1.25;;;;;16.91;100.00;98421.06;4786124;29;45527;-84
2023/03/08 10:23:21;;;;;;;;;2.25;1.00;;;;;17.12;100.00;98423.63;4730640;30;44922;-81
2023/03/08 10:26:17;;;;;;;;;3.00;3.00;;;;;17.40;100.00;98436.53;4747230;29;46248;-84
2023/03/08 10:28:45;;;;;;;;;2.75;1.25;;;;;17.59;100.00;98423.03;4746985;29;45393;-83
2023/03/08 10:31:42;;;;;;;;;2.33;1.67;;;;;17.84;100.00;98432.56;4746626;30;45056;-83
2023/03/08 10:34:07;;;;;;;;;2.00;2.00;;;;;17.85;100.00;98445.91;4798655;29;45594;-81
2023/03/08 10:37:24;;;;;;;;;1.00;1.00;;;;;17.97;100.00;98433.63;4805896;29;46113;-82
2023/03/08 10:39:54;;;;;;;;;1.75;1.75;;;;;17.91;100.00;98417.81;4785556;29;45344;-83
2023/03/08 10:43:05;;;;;;;;;0.75;0.75;;;;;18.28;100.00;98445.41;4799099;29;45392;-83
2023/03/08 10:45:35;;;;;;;;;1.25;1.25;;;;;18.07;100.00;98410.66;4801387;29;45489;-82
2023/03/08 10:48:05;;;;;;;;;0.25;0.25;;;;;18.22;100.00;98435.00;4794871;29;46825;-86
2023/03/08 10:50:36;;;;;;;;;2.00;0.25;;;;;18.35;100.00;98446.84;4808144;29;44865;-83
2023/03/08 10:53:28;;;;;;;;;3.00;1.00;;;;;18.41;100.00;98441.13;4837675;29;45487;-81
2023/03/08 10:55:55;;;;;;;;;1.00;1.00;;;;;18.46;100.00;98455.22;4849382;29;44989;-83
2023/03/08 10:58:23;;;;;;;;;0.25;0.25;;;;;18.68;100.00;98462.06;4916625;29;45406;-82
2023/03/08 11:01:08;;;;;;;;;2.00;1.67;;;;;18.64;100.00;98434.44;4918445;29;45723;-82
2023/03/08 11:03:45;;;;;;;;;2.00;0.25;;;;;18.64;100.00;98431.75;4908028;29;45490;-84
2023/03/08 11:06:49;;;;;;;;;1.67;1.67;;;;;18.66;100.00;98455.91;4931962;28;44782;-82
2023/03/08 11:09:35;;;;;;;;;1.00;0.00;;;;;18.75;100.00;98460.78;4901753;29;45521;-82
2023/03/08 11:12:05;;;;;;;;;2.33;2.00;;;;;18.81;100.00;98456.94;4911010;29;45423;-83
2023/03/08 11:14:30;;;;;;;;;1.67;0.00;;;;;18.70;100.00;98449.41;4913576;29;45371;-81
2023/03/08 11:17:22;;;;;;;;;1.00;1.00;;;;;18.75;100.00;98458.09;4930411;28;44890;-82
2023/03/08 11:24:02;;;;;;;;;2.00;1.00;;;;;18.91;100.00;98455.44;4878362;29;44943;-81
2023/03/08 11:27:08;;;;;;;;;2.00;1.00;;;;;19.07;100.00;98450.94;4911583;29;44918;-80
2023/03/08 11:30:12;;;;;;;;;1.00;1.00;;;;;19.14;100.00;98452.28;4905631;29;44887;-82
2023/03/08 11:33:25;;;;;;;;;1.67;1.67;;;;;19.18;100.00;98459.25;4912739;29;47489;-83
2023/03/08 11:36:32;;;;;;;;;1.00;1.00;;;;;19.19;100.00;98454.75;4922055;28;45489;-82
2023/03/08 11:39:45;;;;;;;;;0.00;0.00;;;;;19.13;100.00;98466.75;4920011;28;44927;-82
2023/03/08 11:42:32;;;;;;;;;2.00;1.00;;;;;19.11;100.00;98486.66;4895526;29;44809;-86
2023/03/08 11:48:47;;;;;;;;;3.00;1.67;;;;;18.74;100.00;98483.28;4888530;29;45559;-83
2023/03/08 11:51:51;;;;;;;;;1.67;1.67;;;;;18.86;100.00;98474.53;4922533;28;45833;-80
2023/03/08 11:54:50;;;;;;;;;3.00;2.67;;;;;18.98;100.00;98460.38;4918127;28;45431;-81
2023/03/08 11:57:17;;;;;;;;;2.00;2.00;;;;;18.71;100.00;98418.84;4913823;29;45391;-80
2023/03/08 12:00:21;;;;;;;;;;;;;;;;;;;;;
2023/03/08 12:02:56;;;;;;;;;3.25;1.75;;;;;18.86;100.00;98438.66;4911035;28;68051;-81
2023/03/08 12:05:21;;;;;;;;;1.25;1.25;;;;;18.83;100.00;98463.97;4911713;29;45412;-81
2023/03/08 12:07:58;;;;;;;;;2.00;2.00;;;;;18.72;100.00;98458.25;4908781;28;47897;-83
2023/03/08 12:10:37;;;;;;;;;1.00;1.00;;;;;18.64;100.00;98461.38;4911891;28;45363;-80